sensor_id;sensor_type;location;lat;lon;timestamp;pressure;altitude;pressure_sealevel;temperature;humidity
43681;BME280;29281;50.356;30.894;2023-04-03T00:00:43;99370.28;;;7.79;100.00
43681;BME280;29281;50.356;30.894;2023-04-03T00:01:46;99379.47;;;7.73;100.00
43681;BME280;29281;50.356;30.894;2023-04-03T00:02:50;99378.30;;;7.64;100.00
43681;BME280;29281;50.356;30.894;2023-04-03T00:03:55;99379.58;;;7.59;100.00
43681;BME280;29281;50.356;30.894;2023-04-03T00:04:57;99377.98;;;7.56;100.00
43681;BME280;29281;50.356;30.894;2023-04-03T00:06:01;99377.34;;;7.65;100.00
43681;BME280;29281;50.356;30.894;2023-04-03T00:07:05;99372.06;;;7.65;100.00
43681;BME280;29281;50.356;30.894;2023-04-03T00:08:08;99373.98;;;7.63;100.00
43681;BME280;29281;50.356;30.894;2023-04-03T00:09:13;99374.94;;;7.62;100.00
43681;BME280;29281;50.356;30.894;2023-04-03T00:10:17;99372.80;;;7.55;100.00
43681;BME280;29281;50.356;30.894;2023-04-03T00:11:24;99375.04;;;7.61;100.00
43681;BME280;29281;50.356;30.894;2023-04-03T00:12:30;99374.29;;;7.71;100.00
43681;BME280;29281;50.356;30.894;2023-04-03T00:13:33;99373.25;;;7.61;100.00
43681;BME280;29281;50.356;30.894;2023-04-03T00:14:37;99372.91;;;7.66;100.00
43681;BME280;29281;50.356;30.894;2023-04-03T00:15:40;99371.86;;;7.56;100.00
43681;BME280;29281;50.356;30.894;2023-04-03T00:16:43;99366.13;;;7.49;100.00
43681;BME280;29281;50.356;30.894;2023-04-03T00:17:48;99375.23;;;7.45;100.00
43681;BME280;29281;50.356;30.894;2023-04-03T00:18:51;99373.66;;;7.55;100.00
43681;BME280;29281;50.356;30.894;2023-04-03T00:19:55;99373.45;;;7.58;100.00
43681;BME280;29281;50.356;30.894;2023-04-03T00:20:58;99377.88;;;7.70;100.00
43681;BME280;29281;50.356;30.894;2023-04-03T00:22:02;99371.34;;;7.76;100.00
43681;BME280;29281;50.356;30.894;2023-04-03T00:23:05;99371.11;;;7.92;100.00
43681;BME280;29281;50.356;30.894;2023-04-03T00:24:08;99375.44;;;7.80;100.00
43681;BME280;29281;50.356;30.894;2023-04-03T00:25:11;99373.75;;;7.66;100.00
43681;BME280;29281;50.356;30.894;2023-04-03T00:26:14;99368.70;;;7.63;100.00
43681;BME280;29281;50.356;30.894;2023-04-03T00:27:19;99371.85;;;7.68;100.00
43681;BME280;29281;50.356;30.894;2023-04-03T00:28:23;99369.41;;;7.65;100.00
43681;BME280;29281;50.356;30.894;2023-04-03T00:29:27;99375.65;;;7.64;100.00
43681;BME280;29281;50.356;30.894;2023-04-03T00:30:33;99378.53;;;7.61;100.00
43681;BME280;29281;50.356;30.894;2023-04-03T00:31:38;99377.04;;;7.57;100.00
43681;BME280;29281;50.356;30.894;2023-04-03T00:32:42;99371.11;;;7.54;100.00
43681;BME280;29281;50.356;30.894;2023-04-03T00:33:46;99372.80;;;7.55;100.00
43681;BME280;29281;50.356;30.894;2023-04-03T00:34:50;99374.19;;;7.60;100.00
43681;BME280;29281;50.356;30.894;2023-04-03T00:35:56;99370.16;;;7.67;100.00
43681;BME280;29281;50.356;30.894;2023-04-03T00:36:59;99373.98;;;7.63;100.00
43681;BME280;29281;50.356;30.894;2023-04-03T00:38:04;99370.05;;;7.69;100.00
43681;BME280;29281;50.356;30.894;2023-04-03T00:39:10;99374.72;;;7.78;100.00
43681;BME280;29281;50.356;30.894;2023-04-03T00:40:13;99369.95;;;7.70;100.00
43681;BME280;29281;50.356;30.894;2023-04-03T00:41:17;99372.19;;;7.76;100.00
43681;BME280;29281;50.356;30.894;2023-04-03T00:42:20;99368.90;;;7.73;100.00
43681;BME280;29281;50.356;30.894;2023-04-03T00:43:24;99373.01;;;7.64;100.00
43681;BME280;29281;50.356;30.894;2023-04-03T00:45:36;99363.28;;;7.65;100.00
43681;BME280;29281;50.356;30.894;2023-04-03T00:46:41;99371.95;;;7.54;100.00
43681;BME280;29281;50.356;30.894;2023-04-03T00:47:46;99363.09;;;7.55;100.00
43681;BME280;29281;50.356;30.894;2023-04-03T00:48:50;99358.64;;;7.68;100.00
43681;BME280;29281;50.356;30.894;2023-04-03T00:49:54;99361.83;;;7.61;100.00
43681;BME280;29281;50.356;30.894;2023-04-03T00:50:57;99359.19;;;7.61;100.00
43681;BME280;29281;50.356;30.894;2023-04-03T00:52:00;99357.69;;;7.69;100.00
43681;BME280;29281;50.356;30.894;2023-04-03T00:53:06;99360.03;;;7.61;100.00
43681;BME280;29281;50.356;30.894;2023-04-03T00:54:11;99364.58;;;7.59;100.00
43681;BME280;29281;50.356;30.894;2023-04-03T00:55:17;99358.97;;;7.76;100.00
43681;BME280;29281;50.356;30.894;2023-04-03T00:56:23;99363.41;;;7.76;100.00
43681;BME280;29281;50.356;30.894;2023-04-03T00:57:29;99358.84;;;7.65;100.00
43681;BME280;29281;50.356;30.894;2023-04-03T00:58:33;99360.77;;;7.63;100.00
43681;BME280;29281;50.356;30.894;2023-04-03T00:59:40;99359.28;;;7.72;100.00
43681;BME280;29281;50.356;30.894;2023-04-03T01:00:46;99361.38;;;7.67;100.00
43681;BME280;29281;50.356;30.894;2023-04-03T01:01:51;99365.22;;;7.63;100.00
43681;BME280;29281;50.356;30.894;2023-04-03T01:02:55;99364.36;;;7.75;100.00
43681;BME280;29281;50.356;30.894;2023-04-03T01:04:02;99360.23;;;7.71;100.00
43681;BME280;29281;50.356;30.894;2023-04-03T01:05:08;99353.05;;;7.73;100.00
43681;BME280;29281;50.356;30.894;2023-04-03T01:06:13;99353.34;;;7.81;100.00
43681;BME280;29281;50.356;30.894;2023-04-03T01:07:21;99353.56;;;7.65;100.00
43681;BME280;29281;50.356;30.894;2023-04-03T01:08:26;99354.20;;;7.69;100.00
43681;BME280;29281;50.356;30.894;2023-04-03T01:09:29;99354.64;;;7.63;100.00
43681;BME280;29281;50.356;30.894;2023-04-03T01:10:36;99359.19;;;7.61;100.00
43681;BME280;29281;50.356;30.894;2023-04-03T01:11:40;99349.45;;;7.74;100.00
43681;BME280;29281;50.356;30.894;2023-04-03T01:12:43;99353.35;;;7.68;100.00
43681;BME280;29281;50.356;30.894;2023-04-03T01:13:48;99354.51;;;7.64;100.00
43681;BME280;29281;50.356;30.894;2023-04-03T01:14:53;99355.79;;;7.71;100.00
43681;BME280;29281;50.356;30.894;2023-04-03T01:16:02;99352.94;;;7.74;100.00
43681;BME280;29281;50.356;30.894;2023-04-03T01:17:24;99358.23;;;7.62;100.00
43681;BME280;29281;50.356;30.894;2023-04-03T01:18:10;99352.51;;;7.68;100.00
43681;BME280;29281;50.356;30.894;2023-04-03T01:19:14;99360.53;;;7.66;100.00
43681;BME280;29281;50.356;30.894;2023-04-03T01:21:42;99354.84;;;7.60;100.00
43681;BME280;29281;50.356;30.894;2023-04-03T01:24:11;99354.51;;;7.64;100.00
43681;BME280;29281;50.356;30.894;2023-04-03T01:25:15;99346.82;;;7.61;100.00
43681;BME280;29281;50.356;30.894;2023-04-03T01:26:20;99353.35;;;7.68;100.00
43681;BME280;29281;50.356;30.894;2023-04-03T01:27:24;99352.71;;;7.65;100.00
43681;BME280;29281;50.356;30.894;2023-04-03T01:28:35;99351.36;;;7.59;100.00
43681;BME280;29281;50.356;30.894;2023-04-03T01:29:36;99346.92;;;7.60;100.00
43681;BME280;29281;50.356;30.894;2023-04-03T01:32:05;99354.30;;;7.67;100.00
43681;BME280;29281;50.356;30.894;2023-04-03T01:33:11;99351.34;;;7.72;100.00
43681;BME280;29281;50.356;30.894;2023-04-03T01:34:14;99354.84;;;7.72;100.00
43681;BME280;29281;50.356;30.894;2023-04-03T01:35:18;99352.63;;;7.79;100.00
43681;BME280;29281;50.356;30.894;2023-04-03T01:36:26;99349.14;;;7.79;100.00
43681;BME280;29281;50.356;30.894;2023-04-03T01:37:30;99343.86;;;7.79;100.00
43681;BME280;29281;50.356;30.894;2023-04-03T01:38:33;99350.50;;;7.71;100.00
43681;BME280;29281;50.356;30.894;2023-04-03T01:39:39;99350.08;;;7.52;100.00
43681;BME280;29281;50.356;30.894;2023-04-03T01:40:42;99355.48;;;7.63;100.00
43681;BME280;29281;50.356;30.894;2023-04-03T01:41:46;99349.97;;;7.66;100.00
43681;BME280;29281;50.356;30.894;2023-04-03T01:42:50;99350.41;;;7.60;100.00
43681;BME280;29281;50.356;30.894;2023-04-03T01:43:54;99357.59;;;7.71;100.00
43681;BME280;29281;50.356;30.894;2023-04-03T01:44:56;99354.09;;;7.70;100.00
43681;BME280;29281;50.356;30.894;2023-04-03T01:46:03;99359.48;;;7.69;100.00
43681;BME280;29281;50.356;30.894;2023-04-03T01:47:06;99355.16;;;7.68;100.00
43681;BME280;29281;50.356;30.894;2023-04-03T01:48:10;99355.36;;;7.65;100.00
43681;BME280;29281;50.356;30.894;2023-04-03T01:49:15;99361.48;;;7.65;100.00
43681;BME280;29281;50.356;30.894;2023-04-03T01:50:19;99363.08;;;7.68;100.00
43681;BME280;29281;50.356;30.894;2023-04-03T01:51:23;99360.64;;;7.65;100.00
43681;BME280;29281;50.356;30.894;2023-04-03T01:52:26;99356.09;;;7.67;100.00
43681;BME280;29281;50.356;30.894;2023-04-03T01:53:30;99359.08;;;7.62;100.00
43681;BME280;29281;50.356;30.894;2023-04-03T01:54:33;99355.80;;;7.59;100.00
43681;BME280;29281;50.356;30.894;2023-04-03T01:55:35;99353.47;;;7.54;100.00
43681;BME280;29281;50.356;30.894;2023-04-03T01:56:40;99356.11;;;7.54;100.00
43681;BME280;29281;50.356;30.894;2023-04-03T01:57:44;99355.59;;;7.62;100.00
43681;BME280;29281;50.356;30.894;2023-04-03T01:58:48;99358.53;;;7.70;100.00
43681;BME280;29281;50.356;30.894;2023-04-03T01:59:53;99356.73;;;7.70;100.00
43681;BME280;29281;50.356;30.894;2023-04-03T02:00:56;99357.59;;;7.71;100.00
43681;BME280;29281;50.356;30.894;2023-04-03T02:02:01;99353.15;;;7.71;100.00
43681;BME280;29281;50.356;30.894;2023-04-03T02:03:05;99353.69;;;7.76;100.00
43681;BME280;29281;50.356;30.894;2023-04-03T02:04:09;99358.42;;;7.84;100.00
43681;BME280;29281;50.356;30.894;2023-04-03T02:05:12;99358.33;;;7.73;100.00
43681;BME280;29281;50.356;30.894;2023-04-03T02:06:15;99356.20;;;7.65;100.00
43681;BME280;29281;50.356;30.894;2023-04-03T02:07:19;99362.03;;;7.58;100.00
43681;BME280;29281;50.356;30.894;2023-04-03T02:08:22;99354.75;;;7.61;100.00
43681;BME280;29281;50.356;30.894;2023-04-03T02:09:26;99354.41;;;7.66;100.00
43681;BME280;29281;50.356;30.894;2023-04-03T02:10:31;99357.80;;;7.68;100.00
43681;BME280;29281;50.356;30.894;2023-04-03T02:11:35;99349.56;;;7.60;100.00
43681;BME280;29281;50.356;30.894;2023-04-03T02:12:39;99353.80;;;7.62;100.00
43681;BME280;29281;50.356;30.894;2023-04-03T02:13:41;99352.71;;;7.65;100.00
43681;BME280;29281;50.356;30.894;2023-04-03T02:14:45;99359.49;;;7.56;100.00
43681;BME280;29281;50.356;30.894;2023-04-03T02:15:48;99358.23;;;7.62;100.00
43681;BME280;29281;50.356;30.894;2023-04-03T02:16:53;99354.41;;;7.66;100.00
43681;BME280;29281;50.356;30.894;2023-04-03T02:17:57;99361.93;;;7.59;100.00
43681;BME280;29281;50.356;30.894;2023-04-03T02:19:01;99354.64;;;7.63;100.00
43681;BME280;29281;50.356;30.894;2023-04-03T02:20:06;99351.16;;;7.62;100.00
43681;BME280;29281;50.356;30.894;2023-04-03T02:21:09;99356.00;;;7.68;100.00
43681;BME280;29281;50.356;30.894;2023-04-03T02:22:13;99350.52;;;7.59;100.00
43681;BME280;29281;50.356;30.894;2023-04-03T02:23:16;99356.44;;;7.62;100.00
43681;BME280;29281;50.356;30.894;2023-04-03T02:24:20;99353.35;;;7.68;100.00
43681;BME280;29281;50.356;30.894;2023-04-03T02:25:25;99355.70;;;7.60;100.00
43681;BME280;29281;50.356;30.894;2023-04-03T02:26:29;99360.98;;;7.60;100.00
43681;BME280;29281;50.356;30.894;2023-04-03T02:27:32;99356.41;;;7.50;100.00
43681;BME280;29281;50.356;30.894;2023-04-03T02:28:37;99361.93;;;7.59;100.00
43681;BME280;29281;50.356;30.894;2023-04-03T02:29:40;99360.64;;;7.65;100.00
43681;BME280;29281;50.356;30.894;2023-04-03T02:30:44;99356.20;;;7.65;100.00
43681;BME280;29281;50.356;30.894;2023-04-03T02:31:50;99356.33;;;7.76;100.00
43681;BME280;29281;50.356;30.894;2023-04-03T02:32:55;99354.09;;;7.70;100.00
43681;BME280;29281;50.356;30.894;2023-04-03T02:33:59;99362.98;;;7.69;100.00
43681;BME280;29281;50.356;30.894;2023-04-03T02:35:04;99354.20;;;7.69;100.00
43681;BME280;29281;50.356;30.894;2023-04-03T02:36:09;99356.20;;;7.65;100.00
43681;BME280;29281;50.356;30.894;2023-04-03T02:37:15;99359.59;;;7.67;100.00
43681;BME280;29281;50.356;30.894;2023-04-03T02:38:20;99353.45;;;7.67;100.00
43681;BME280;29281;50.356;30.894;2023-04-03T02:39:24;99356.44;;;7.62;100.00
43681;BME280;29281;50.356;30.894;2023-04-03T02:40:27;99357.29;;;7.63;100.00
43681;BME280;29281;50.356;30.894;2023-04-03T02:41:31;99356.20;;;7.53;100.00
43681;BME280;29281;50.356;30.894;2023-04-03T02:42:38;99359.49;;;7.56;100.00
43681;BME280;29281;50.356;30.894;2023-04-03T02:43:43;99359.19;;;7.61;100.00
43681;BME280;29281;50.356;30.894;2023-04-03T02:44:47;99365.82;;;7.66;100.00
43681;BME280;29281;50.356;30.894;2023-04-03T02:45:51;99361.38;;;7.67;100.00
43681;BME280;29281;50.356;30.894;2023-04-03T02:46:54;99364.56;;;7.72;100.00
43681;BME280;29281;50.356;30.894;2023-04-03T02:48:03;99357.39;;;7.61;100.00
43681;BME280;29281;50.356;30.894;2023-04-03T02:49:08;99363.72;;;7.71;100.00
43681;BME280;29281;50.356;30.894;2023-04-03T02:50:11;99355.05;;;7.57;100.00
43681;BME280;29281;50.356;30.894;2023-04-03T02:51:14;99362.88;;;7.58;100.00
43681;BME280;29281;50.356;30.894;2023-04-03T02:52:17;99360.03;;;7.61;100.00
43681;BME280;29281;50.356;30.894;2023-04-03T02:53:22;99359.19;;;7.61;100.00
43681;BME280;29281;50.356;30.894;2023-04-03T02:54:26;99362.13;;;7.56;100.00
43681;BME280;29281;50.356;30.894;2023-04-03T02:55:33;99355.91;;;7.57;100.00
43681;BME280;29281;50.356;30.894;2023-04-03T02:56:37;99357.26;;;7.50;100.00
43681;BME280;29281;50.356;30.894;2023-04-03T02:57:44;99369.95;;;7.45;100.00
43681;BME280;29281;50.356;30.894;2023-04-03T02:58:47;99360.98;;;7.48;100.00
43681;BME280;29281;50.356;30.894;2023-04-03T02:59:51;99360.64;;;7.52;100.00
43681;BME280;29281;50.356;30.894;2023-04-03T03:00:55;99367.52;;;7.55;100.00
43681;BME280;29281;50.356;30.894;2023-04-03T03:01:57;99365.42;;;7.60;100.00
43681;BME280;29281;50.356;30.894;2023-04-03T03:03:00;99365.62;;;7.57;100.00
43681;BME280;29281;50.356;30.894;2023-04-03T03:04:04;99360.44;;;7.55;100.00
43681;BME280;29281;50.356;30.894;2023-04-03T03:05:08;99364.03;;;7.54;100.00
43681;BME280;29281;50.356;30.894;2023-04-03T03:06:12;99362.03;;;7.58;100.00
43681;BME280;29281;50.356;30.894;2023-04-03T03:07:16;99362.44;;;7.64;100.00
43681;BME280;29281;50.356;30.894;2023-04-03T03:08:20;99358.55;;;7.57;100.00
43681;BME280;29281;50.356;30.894;2023-04-03T03:09:23;99364.88;;;7.55;100.00
43681;BME280;29281;50.356;30.894;2023-04-03T03:10:26;99366.57;;;7.43;100.00
43681;BME280;29281;50.356;30.894;2023-04-03T03:11:30;99365.42;;;7.47;100.00
43681;BME280;29281;50.356;30.894;2023-04-03T03:12:34;99365.42;;;7.47;100.00
43681;BME280;29281;50.356;30.894;2023-04-03T03:13:37;99359.19;;;7.48;100.00
43681;BME280;29281;50.356;30.894;2023-04-03T03:14:39;99364.23;;;7.64;100.00
43681;BME280;29281;50.356;30.894;2023-04-03T03:15:44;99359.08;;;7.75;100.00
43681;BME280;29281;50.356;30.894;2023-04-03T03:16:47;99362.77;;;7.72;100.00
43681;BME280;29281;50.356;30.894;2023-04-03T03:17:53;99361.72;;;7.75;100.00
43681;BME280;29281;50.356;30.894;2023-04-03T03:18:58;99361.72;;;7.75;100.00
43681;BME280;29281;50.356;30.894;2023-04-03T03:20:04;99353.56;;;7.65;100.00
43681;BME280;29281;50.356;30.894;2023-04-03T03:21:10;99363.93;;;7.56;100.00
43681;BME280;29281;50.356;30.894;2023-04-03T03:22:12;99358.44;;;7.59;100.00
43681;BME280;29281;50.356;30.894;2023-04-03T03:23:16;99356.55;;;7.61;100.00
43681;BME280;29281;50.356;30.894;2023-04-03T03:24:19;99360.53;;;7.66;100.00
43681;BME280;29281;50.356;30.894;2023-04-03T03:25:22;99360.77;;;7.63;100.00
43681;BME280;29281;50.356;30.894;2023-04-03T03:26:26;99355.80;;;7.59;100.00
43681;BME280;29281;50.356;30.894;2023-04-03T03:27:30;99356.73;;;7.70;100.00
43681;BME280;29281;50.356;30.894;2023-04-03T03:28:33;99360.22;;;7.84;100.00
43681;BME280;29281;50.356;30.894;2023-04-03T03:29:37;99356.52;;;7.86;100.00
43681;BME280;29281;50.356;30.894;2023-04-03T03:30:41;99362.58;;;7.63;100.00
43681;BME280;29281;50.356;30.894;2023-04-03T03:31:44;99358.74;;;7.67;100.00
43681;BME280;29281;50.356;30.894;2023-04-03T03:32:48;99356.33;;;7.76;100.00
43681;BME280;29281;50.356;30.894;2023-04-03T03:33:53;99361.51;;;7.78;100.00
43681;BME280;29281;50.356;30.894;2023-04-03T03:34:57;99355.69;;;7.73;100.00
43681;BME280;29281;50.356;30.894;2023-04-03T03:36:00;99351.78;;;7.79;100.00
43681;BME280;29281;50.356;30.894;2023-04-03T03:37:04;99361.08;;;7.71;100.00
43681;BME280;29281;50.356;30.894;2023-04-03T03:38:09;99363.08;;;7.68;100.00
43681;BME280;29281;50.356;30.894;2023-04-03T03:39:14;99362.77;;;7.72;100.00
43681;BME280;29281;50.356;30.894;2023-04-03T03:40:20;99361.28;;;7.68;100.00
43681;BME280;29281;50.356;30.894;2023-04-03T03:41:23;99367.31;;;7.70;100.00
43681;BME280;29281;50.356;30.894;2023-04-03T03:42:28;99364.16;;;7.78;100.00
43681;BME280;29281;50.356;30.894;2023-04-03T03:43:35;99365.95;;;7.78;100.00
43681;BME280;29281;50.356;30.894;2023-04-03T03:44:40;99362.98;;;7.57;100.00
43681;BME280;29281;50.356;30.894;2023-04-03T03:45:44;99364.47;;;7.61;100.00
43681;BME280;29281;50.356;30.894;2023-04-03T03:46:48;99362.67;;;7.61;100.00
43681;BME280;29281;50.356;30.894;2023-04-03T03:47:52;99361.83;;;7.61;100.00
43681;BME280;29281;50.356;30.894;2023-04-03T03:48:55;99362.03;;;7.58;100.00
43681;BME280;29281;50.356;30.894;2023-04-03T03:49:59;99360.53;;;7.66;100.00
43681;BME280;29281;50.356;30.894;2023-04-03T03:51:06;99358.86;;;7.78;100.00
43681;BME280;29281;50.356;30.894;2023-04-03T03:52:11;99359.38;;;7.70;100.00
43681;BME280;29281;50.356;30.894;2023-04-03T03:53:14;99363.72;;;7.71;100.00
43681;BME280;29281;50.356;30.894;2023-04-03T03:54:18;99362.02;;;7.70;100.00
43681;BME280;29281;50.356;30.894;2023-04-03T03:55:22;99364.88;;;7.67;100.00
43681;BME280;29281;50.356;30.894;2023-04-03T03:56:27;99359.17;;;7.73;100.00
43681;BME280;29281;50.356;30.894;2023-04-03T03:57:32;99366.05;;;7.76;100.00
43681;BME280;29281;50.356;30.894;2023-04-03T03:58:37;99359.71;;;7.79;100.00
43681;BME280;29281;50.356;30.894;2023-04-03T03:59:40;99363.06;;;7.81;100.00
43681;BME280;29281;50.356;30.894;2023-04-03T04:00:46;99365.50;;;7.84;100.00
43681;BME280;29281;50.356;30.894;2023-04-03T04:01:49;99367.75;;;7.77;100.00
43681;BME280;29281;50.356;30.894;2023-04-03T04:02:52;99363.20;;;7.79;100.00
43681;BME280;29281;50.356;30.894;2023-04-03T04:03:57;99365.61;;;7.82;100.00
43681;BME280;29281;50.356;30.894;2023-04-03T04:05:03;99367.50;;;7.80;100.00
43681;BME280;29281;50.356;30.894;2023-04-03T04:06:07;99368.35;;;7.81;100.00
43681;BME280;29281;50.356;30.894;2023-04-03T04:07:15;99361.08;;;7.71;100.00
43681;BME280;29281;50.356;30.894;2023-04-03T04:08:19;99376.28;;;7.81;100.00
43681;BME280;29281;50.356;30.894;2023-04-03T04:09:23;99361.92;;;7.72;100.00
43681;BME280;29281;50.356;30.894;2023-04-03T04:10:26;99367.41;;;7.82;100.00
43681;BME280;29281;50.356;30.894;2023-04-03T04:11:30;99366.98;;;7.88;100.00
43681;BME280;29281;50.356;30.894;2023-04-03T04:12:35;99369.09;;;7.83;100.00
43681;BME280;29281;50.356;30.894;2023-04-03T04:13:38;99369.84;;;7.85;100.00
43681;BME280;29281;50.356;30.894;2023-04-03T04:14:41;99372.38;;;7.86;100.00
43681;BME280;29281;50.356;30.894;2023-04-03T04:15:48;99368.58;;;7.90;100.00
43681;BME280;29281;50.356;30.894;2023-04-03T04:16:52;99372.58;;;7.83;100.00
43681;BME280;29281;50.356;30.894;2023-04-03T04:17:57;99377.25;;;7.92;100.00
43681;BME280;29281;50.356;30.894;2023-04-03T04:19:01;99376.17;;;7.82;100.00
43681;BME280;29281;50.356;30.894;2023-04-03T04:20:07;99376.61;;;7.89;100.00
43681;BME280;29281;50.356;30.894;2023-04-03T04:21:13;99369.63;;;7.88;100.00
43681;BME280;29281;50.356;30.894;2023-04-03T04:22:17;99375.66;;;7.90;100.00
43681;BME280;29281;50.356;30.894;2023-04-03T04:23:21;99376.08;;;7.84;100.00
43681;BME280;29281;50.356;30.894;2023-04-03T04:24:25;99380.72;;;7.80;100.00
43681;BME280;29281;50.356;30.894;2023-04-03T04:25:29;99378.21;;;7.79;100.00
43681;BME280;29281;50.356;30.894;2023-04-03T04:26:33;99379.06;;;7.79;100.00
43681;BME280;29281;50.356;30.894;2023-04-03T04:27:37;99378.72;;;7.84;100.00
43681;BME280;29281;50.356;30.894;2023-04-03T04:28:40;99378.20;;;7.91;100.00
43681;BME280;29281;50.356;30.894;2023-04-03T04:29:44;99379.79;;;7.94;100.00
43681;BME280;29281;50.356;30.894;2023-04-03T04:30:48;99379.66;;;7.95;100.00
43681;BME280;29281;50.356;30.894;2023-04-03T04:31:55;99379.55;;;8.09;100.00
43681;BME280;29281;50.356;30.894;2023-04-03T04:33:00;99374.13;;;8.11;100.00
43681;BME280;29281;50.356;30.894;2023-04-03T04:34:04;99375.33;;;8.07;100.00
43681;BME280;29281;50.356;30.894;2023-04-03T04:35:07;99378.18;;;8.04;100.00
43681;BME280;29281;50.356;30.894;2023-04-03T04:36:12;99382.44;;;7.94;100.00
43681;BME280;29281;50.356;30.894;2023-04-03T04:37:17;99377.33;;;8.03;100.00
43681;BME280;29281;50.356;30.894;2023-04-03T04:38:21;99369.50;;;8.02;100.00
43681;BME280;29281;50.356;30.894;2023-04-03T04:39:26;99372.25;;;8.00;100.00
43681;BME280;29281;50.356;30.894;2023-04-03T04:40:30;99373.84;;;8.03;100.00
43681;BME280;29281;50.356;30.894;2023-04-03T04:41:37;99377.13;;;8.06;100.00
43681;BME280;29281;50.356;30.894;2023-04-03T04:42:41;99374.69;;;8.03;100.00
43681;BME280;29281;50.356;30.894;2023-04-03T04:43:45;99378.92;;;8.06;100.00
43681;BME280;29281;50.356;30.894;2023-04-03T04:44:48;99385.18;;;7.92;100.00
43681;BME280;29281;50.356;30.894;2023-04-03T04:46:05;99380.00;;;7.91;100.00
43681;BME280;29281;50.356;30.894;2023-04-03T04:47:11;99382.19;;;7.97;100.00
43681;BME280;29281;50.356;30.894;2023-04-03T04:48:15;99372.68;;;8.07;100.00
43681;BME280;29281;50.356;30.894;2023-04-03T04:49:22;99380.92;;;8.02;100.00
43681;BME280;29281;50.356;30.894;2023-04-03T04:50:25;99376.70;;;8.00;100.00
43681;BME280;29281;50.356;30.894;2023-04-03T04:51:29;99382.53;;;7.92;100.00
43681;BME280;29281;50.356;30.894;2023-04-03T04:52:38;99383.78;;;7.99;100.00
43681;BME280;29281;50.356;30.894;2023-04-03T04:53:42;99381.92;;;8.25;100.00
43681;BME280;29281;50.356;30.894;2023-04-03T04:54:47;99381.82;;;8.27;100.00
43681;BME280;29281;50.356;30.894;2023-04-03T04:55:51;99382.59;;;8.16;100.00
43681;BME280;29281;50.356;30.894;2023-04-03T04:56:54;99385.77;;;8.21;100.00
43681;BME280;29281;50.356;30.894;2023-04-03T04:57:59;99382.80;;;8.13;100.00
43681;BME280;29281;50.356;30.894;2023-04-03T04:59:03;99385.27;;;8.03;100.00
43681;BME280;29281;50.356;30.894;2023-04-03T05:00:08;99377.86;;;8.08;100.00
43681;BME280;29281;50.356;30.894;2023-04-03T05:01:12;99382.62;;;8.03;100.00
43681;BME280;29281;50.356;30.894;2023-04-03T05:02:20;99385.23;;;8.16;100.00
43681;BME280;29281;50.356;30.894;2023-04-03T05:03:24;99381.00;;;8.13;100.00
43681;BME280;29281;50.356;30.894;2023-04-03T05:04:27;99377.02;;;8.08;100.00
43681;BME280;29281;50.356;30.894;2023-04-03T05:05:33;99379.66;;;8.08;100.00
43681;BME280;29281;50.356;30.894;2023-04-03T05:06:36;99376.56;;;8.14;100.00
43681;BME280;29281;50.356;30.894;2023-04-03T05:07:41;99386.90;;;8.30;100.00
43681;BME280;29281;50.356;30.894;2023-04-03T05:08:45;99382.06;;;8.36;100.00
43681;BME280;29281;50.356;30.894;2023-04-03T05:09:52;99387.52;;;8.46;100.00
43681;BME280;29281;50.356;30.894;2023-04-03T05:10:54;99381.92;;;8.25;100.00
43681;BME280;29281;50.356;30.894;2023-04-03T05:11:58;99385.34;;;8.15;100.00
43681;BME280;29281;50.356;30.894;2023-04-03T05:13:04;99384.63;;;8.00;100.00
43681;BME280;29281;50.356;30.894;2023-04-03T05:14:08;99383.86;;;8.10;100.00
43681;BME280;29281;50.356;30.894;2023-04-03T05:15:16;99387.14;;;8.14;100.00
43681;BME280;29281;50.356;30.894;2023-04-03T05:16:16;99388.73;;;8.17;100.00
43681;BME280;29281;50.356;30.894;2023-04-03T05:17:18;99382.80;;;8.13;100.00
43681;BME280;29281;50.356;30.894;2023-04-03T05:18:24;99386.51;;;8.23;100.00
43681;BME280;29281;50.356;30.894;2023-04-03T05:19:31;99389.44;;;8.31;100.00
43681;BME280;29281;50.356;30.894;2023-04-03T05:20:34;99389.05;;;8.25;100.00
43681;BME280;29281;50.356;30.894;2023-04-03T05:21:39;99384.36;;;8.28;100.00
43681;BME280;29281;50.356;30.894;2023-04-03T05:22:45;99383.02;;;8.10;100.00
43681;BME280;29281;50.356;30.894;2023-04-03T05:23:51;99388.91;;;8.26;100.00
43681;BME280;29281;50.356;30.894;2023-04-03T05:24:54;99394.97;;;8.16;100.00
43681;BME280;29281;50.356;30.894;2023-04-03T05:25:57;99390.11;;;8.22;100.00
43681;BME280;29281;50.356;30.894;2023-04-03T05:27:01;99392.19;;;8.30;100.00
43681;BME280;29281;50.356;30.894;2023-04-03T05:28:08;99390.11;;;8.22;100.00
43681;BME280;29281;50.356;30.894;2023-04-03T05:29:11;99390.50;;;8.29;100.00
43681;BME280;29281;50.356;30.894;2023-04-03T05:30:19;99394.94;;;8.28;100.00
43681;BME280;29281;50.356;30.894;2023-04-03T05:31:23;99394.94;;;8.41;100.00
43681;BME280;29281;50.356;30.894;2023-04-03T05:32:26;99396.41;;;8.45;100.00
43681;BME280;29281;50.356;30.894;2023-04-03T05:33:35;99399.17;;;8.43;100.00
43681;BME280;29281;50.356;30.894;2023-04-03T05:34:40;99402.03;;;8.40;100.00
43681;BME280;29281;50.356;30.894;2023-04-03T05:35:44;99399.09;;;8.32;100.00
43681;BME280;29281;50.356;30.894;2023-04-03T05:36:50;99401.64;;;8.34;100.00
43681;BME280;29281;50.356;30.894;2023-04-03T05:37:54;99399.80;;;8.47;100.00
43681;BME280;29281;50.356;30.894;2023-04-03T05:38:58;99401.92;;;8.42;100.00
43681;BME280;29281;50.356;30.894;2023-04-03T05:40:03;99399.27;;;8.42;100.00
43681;BME280;29281;50.356;30.894;2023-04-03T05:41:07;99401.28;;;8.51;100.00
43681;BME280;29281;50.356;30.894;2023-04-03T05:42:12;99401.92;;;8.42;100.00